createdAt,value
2023-04-08T00:00:17.842Z,100.00
2023-04-08T00:02:44.376Z,100.00
2023-04-08T00:05:10.872Z,100.00
2023-04-08T00:07:37.519Z,100.00
2023-04-08T00:10:04.609Z,100.00
2023-04-08T00:12:31.222Z,100.00
2023-04-08T00:14:57.979Z,100.00
2023-04-08T00:17:24.484Z,100.00
2023-04-08T00:19:51.751Z,100.00
2023-04-08T00:22:18.544Z,100.00
2023-04-08T00:24:45.026Z,100.00
2023-04-08T00:27:11.477Z,100.00
2023-04-08T00:29:37.982Z,100.00
2023-04-08T00:32:04.842Z,100.00
2023-04-08T00:34:31.354Z,100.00
2023-04-08T00:36:58.183Z,100.00
2023-04-08T00:39:24.624Z,100.00
2023-04-08T00:41:51.231Z,100.00
2023-04-08T00:44:17.866Z,100.00
2023-04-08T00:46:44.416Z,100.00
2023-04-08T00:49:11.377Z,100.00
2023-04-08T00:51:38.084Z,100.00
2023-04-08T00:54:05.572Z,100.00
2023-04-08T00:56:33.100Z,100.00
2023-04-08T00:59:01.126Z,100.00
2023-04-08T01:01:54.060Z,100.00
2023-04-08T01:04:35.406Z,100.00
2023-04-08T01:07:17.239Z,100.00
2023-04-08T01:09:46.149Z,100.00
2023-04-08T01:12:20.523Z,100.00
2023-04-08T01:14:48.772Z,100.00
2023-04-08T01:17:19.718Z,100.00
2023-04-08T01:19:47.791Z,100.00
2023-04-08T01:22:46.268Z,100.00
2023-04-08T01:25:17.398Z,100.00
2023-04-08T01:27:44.478Z,100.00
2023-04-08T01:30:11.887Z,100.00
2023-04-08T01:32:40.073Z,100.00
2023-04-08T01:35:07.925Z,100.00
2023-04-08T01:37:35.532Z,100.00
2023-04-08T01:40:03.143Z,100.00
2023-04-08T01:42:30.048Z,100.00
2023-04-08T01:44:59.132Z,100.00
2023-04-08T01:47:26.631Z,100.00
2023-04-08T01:49:53.590Z,100.00
2023-04-08T01:52:21.198Z,100.00
2023-04-08T01:54:47.753Z,100.00
2023-04-08T01:57:28.465Z,100.00
2023-04-08T02:00:01.789Z,100.00
2023-04-08T02:02:29.922Z,100.00
2023-04-08T02:04:58.308Z,100.00
2023-04-08T02:07:24.830Z,100.00
2023-04-08T02:09:51.486Z,100.00
2023-04-08T02:12:18.199Z,100.00
2023-04-08T02:14:44.810Z,100.00
2023-04-08T02:17:24.259Z,100.00
2023-04-08T02:19:52.558Z,100.00
2023-04-08T02:22:55.391Z,100.00
2023-04-08T02:25:24.383Z,100.00
2023-04-08T02:27:52.920Z,100.00
2023-04-08T02:30:20.356Z,100.00
2023-04-08T02:32:48.307Z,100.00
2023-04-08T02:35:16.486Z,100.00
2023-04-08T02:37:43.434Z,100.00
2023-04-08T02:40:30.792Z,100.00
2023-04-08T02:42:57.964Z,100.00
2023-04-08T02:45:31.116Z,100.00
2023-04-08T02:48:00.013Z,100.00
2023-04-08T02:50:27.101Z,100.00
2023-04-08T02:52:53.533Z,100.00
2023-04-08T02:55:20.438Z,100.00
2023-04-08T02:57:48.273Z,100.00
2023-04-08T03:00:15.786Z,100.00
2023-04-08T03:02:42.470Z,100.00
2023-04-08T03:05:11.906Z,100.00
2023-04-08T03:07:38.692Z,100.00
2023-04-08T03:10:06.116Z,100.00
2023-04-08T03:12:33.011Z,100.00
2023-04-08T03:15:00.152Z,100.00
2023-04-08T03:17:26.727Z,100.00
2023-04-08T03:19:53.378Z,100.00
2023-04-08T03:22:19.840Z,100.00
2023-04-08T03:24:46.365Z,100.00
2023-04-08T03:27:12.880Z,100.00
2023-04-08T03:29:39.498Z,100.00
2023-04-08T03:32:06.489Z,100.00
2023-04-08T03:34:34.650Z,100.00
2023-04-08T03:37:01.681Z,100.00
2023-04-08T03:39:28.254Z,100.00
2023-04-08T03:41:54.768Z,100.00
2023-04-08T03:44:21.199Z,100.00
2023-04-08T03:46:47.731Z,100.00
2023-04-08T03:49:14.171Z,100.00
2023-04-08T03:51:40.554Z,100.00
2023-04-08T03:54:07.774Z,100.00
2023-04-08T03:56:34.305Z,100.00
2023-04-08T03:59:00.879Z,100.00
2023-04-08T04:01:27.379Z,100.00
2023-04-08T04:03:53.979Z,100.00
2023-04-08T04:06:20.470Z,100.00
2023-04-08T04:08:47.063Z,100.00
2023-04-08T04:11:13.519Z,100.00
2023-04-08T04:13:39.956Z,100.00
2023-04-08T04:16:06.597Z,100.00
2023-04-08T04:18:33.177Z,100.00
2023-04-08T04:20:59.611Z,100.00
2023-04-08T04:23:26.076Z,100.00
2023-04-08T04:25:52.547Z,100.00
2023-04-08T04:28:19.007Z,100.00
2023-04-08T04:30:46.124Z,100.00
2023-04-08T04:33:12.781Z,100.00
2023-04-08T04:35:40.914Z,100.00
2023-04-08T04:38:12.186Z,100.00
2023-04-08T04:40:39.228Z,100.00
2023-04-08T04:43:05.795Z,100.00
2023-04-08T04:45:32.340Z,100.00
2023-04-08T04:47:58.784Z,100.00
2023-04-08T04:50:25.360Z,100.00
2023-04-08T04:52:51.830Z,100.00
2023-04-08T04:55:18.468Z,100.00
2023-04-08T04:57:44.989Z,100.00
2023-04-08T05:00:12.103Z,100.00
2023-04-08T05:02:38.814Z,100.00
2023-04-08T05:05:05.992Z,100.00
2023-04-08T05:07:36.537Z,100.00
2023-04-08T05:10:04.407Z,100.00
2023-04-08T05:12:31.378Z,100.00
2023-04-08T05:15:02.147Z,100.00
2023-04-08T05:17:28.687Z,100.00
2023-04-08T05:19:55.198Z,100.00
2023-04-08T05:22:22.220Z,100.00
2023-04-08T05:24:48.903Z,100.00
2023-04-08T05:27:15.562Z,100.00
2023-04-08T05:29:42.389Z,100.00
2023-04-08T05:32:09.221Z,100.00
2023-04-08T05:34:35.748Z,100.00
2023-04-08T05:37:02.184Z,100.00
2023-04-08T05:39:28.713Z,100.00
2023-04-08T05:41:55.349Z,100.00
2023-04-08T05:44:21.791Z,100.00
2023-04-08T05:46:48.306Z,100.00
2023-04-08T05:49:15.671Z,100.00
2023-04-08T05:51:42.338Z,100.00
2023-04-08T05:54:09.016Z,100.00
2023-04-08T05:56:35.973Z,100.00
2023-04-08T05:59:02.492Z,100.00
2023-04-08T06:01:29.040Z,100.00
2023-04-08T06:03:58.549Z,100.00
2023-04-08T06:06:28.055Z,100.00
2023-04-08T06:08:54.460Z,100.00
2023-04-08T06:11:20.978Z,100.00
2023-04-08T06:13:48.019Z,100.00
2023-04-08T06:16:18.706Z,100.00
2023-04-08T06:18:47.288Z,100.00
2023-04-08T06:21:14.208Z,100.00
2023-04-08T06:23:40.661Z,100.00
2023-04-08T06:26:07.111Z,100.00
2023-04-08T06:28:33.625Z,100.00
2023-04-08T06:31:00.395Z,100.00
2023-04-08T06:33:26.857Z,100.00
2023-04-08T06:36:04.744Z,100.00
2023-04-08T06:38:32.037Z,100.00
2023-04-08T06:41:08.956Z,100.00
2023-04-08T06:43:37.953Z,100.00
2023-04-08T06:46:04.743Z,100.00
2023-04-08T06:48:31.354Z,100.00
2023-04-08T06:50:59.046Z,100.00
2023-04-08T06:53:26.166Z,100.00
2023-04-08T06:55:52.696Z,100.00
2023-04-08T06:58:19.158Z,100.00
2023-04-08T07:00:45.651Z,100.00
2023-04-08T07:03:12.525Z,100.00
2023-04-08T07:05:39.421Z,100.00
2023-04-08T07:08:06.612Z,100.00
2023-04-08T07:10:34.394Z,100.00
2023-04-08T07:13:01.734Z,100.00
2023-04-08T07:15:28.169Z,100.00
2023-04-08T07:17:57.029Z,100.00
2023-04-08T07:20:23.672Z,100.00
2023-04-08T07:22:50.377Z,100.00
2023-04-08T07:25:17.013Z,100.00
2023-04-08T07:27:43.715Z,100.00
2023-04-08T07:30:10.538Z,100.00
2023-04-08T07:32:37.075Z,100.00
2023-04-08T07:35:03.991Z,100.00
2023-04-08T07:37:30.628Z,100.00
2023-04-08T07:39:57.056Z,100.00
2023-04-08T07:42:23.479Z,100.00
2023-04-08T07:44:49.951Z,100.00
2023-04-08T07:47:16.562Z,100.00
2023-04-08T07:49:43.003Z,100.00
2023-04-08T07:52:09.481Z,100.00
2023-04-08T07:54:35.998Z,100.00
2023-04-08T07:57:02.622Z,100.00
2023-04-08T07:59:29.380Z,100.00
2023-04-08T08:01:55.933Z,100.00
2023-04-08T08:04:25.728Z,100.00
2023-04-08T08:06:52.374Z,100.00
2023-04-08T08:09:18.876Z,100.00
2023-04-08T08:11:45.375Z,100.00
2023-04-08T08:14:13.828Z,100.00
2023-04-08T08:16:40.321Z,100.00
2023-04-08T08:19:07.565Z,100.00
2023-04-08T08:21:37.090Z,98.03
2023-04-08T08:24:03.616Z,99.29
2023-04-08T08:26:30.100Z,100.00
2023-04-08T08:28:56.958Z,100.00
2023-04-08T08:31:23.471Z,96.53
2023-04-08T08:33:50.131Z,96.83
2023-04-08T08:36:17.963Z,96.97
2023-04-08T08:38:44.545Z,98.34
2023-04-08T08:41:11.245Z,97.96
2023-04-08T08:43:38.656Z,97.52
2023-04-08T08:46:09.986Z,96.13
2023-04-08T08:48:38.573Z,95.36
2023-04-08T08:51:09.799Z,94.15
2023-04-08T08:53:36.774Z,94.23
2023-04-08T08:58:33.542Z,96.80
2023-04-08T09:01:00.208Z,96.82
2023-04-08T09:03:28.761Z,94.44
2023-04-08T09:06:00.651Z,91.37
2023-04-08T09:08:27.005Z,92.72
2023-04-08T09:10:54.474Z,89.64
2023-04-08T09:13:23.467Z,87.52
2023-04-08T09:16:05.176Z,84.40
2023-04-08T09:18:32.457Z,87.73
2023-04-08T09:21:03.298Z,83.66
2023-04-08T09:23:53.150Z,85.03
2023-04-08T09:26:27.528Z,85.11
2023-04-08T09:29:18.276Z,85.12
2023-04-08T09:31:59.166Z,82.23
2023-04-08T09:34:27.280Z,82.12
2023-04-08T09:36:55.692Z,80.67
2023-04-08T09:39:22.787Z,81.78
2023-04-08T09:41:50.955Z,79.26
2023-04-08T09:44:20.768Z,80.73
2023-04-08T09:46:50.462Z,79.47
2023-04-08T09:49:33.767Z,75.31
2023-04-08T09:52:15.733Z,76.09
2023-04-08T09:54:56.330Z,76.55
2023-04-08T09:57:33.432Z,75.87
2023-04-08T10:00:12.944Z,76.78
2023-04-08T10:03:14.299Z,73.31
2023-04-08T10:05:42.238Z,72.26
2023-04-08T10:08:08.794Z,75.54
2023-04-08T10:10:38.354Z,73.27
2023-04-08T10:13:06.626Z,74.28
2023-04-08T10:15:34.639Z,75.82
2023-04-08T10:18:06.819Z,72.50
2023-04-08T10:20:36.055Z,71.01
2023-04-08T10:23:10.476Z,69.69
2023-04-08T10:25:38.695Z,71.95
2023-04-08T10:28:11.254Z,72.98
2023-04-08T10:30:47.432Z,71.41
2023-04-08T10:33:21.914Z,71.82
2023-04-08T10:35:49.299Z,70.45
2023-04-08T10:38:17.602Z,71.58
2023-04-08T10:40:44.593Z,71.82
2023-04-08T10:43:12.930Z,69.74
2023-04-08T10:45:42.970Z,72.48
2023-04-08T10:48:15.401Z,73.75
2023-04-08T10:50:42.011Z,69.25
2023-04-08T10:53:08.617Z,69.38
2023-04-08T10:55:35.407Z,68.10
2023-04-08T10:58:09.245Z,65.10
2023-04-08T11:00:38.232Z,66.37
2023-04-08T11:03:09.864Z,67.96
2023-04-08T11:05:38.027Z,66.40
2023-04-08T11:08:05.678Z,64.87
2023-04-08T11:10:37.731Z,64.94
2023-04-08T11:13:07.506Z,66.23
2023-04-08T11:15:36.051Z,64.56
2023-04-08T11:18:04.367Z,66.01
2023-04-08T11:20:32.481Z,63.53
2023-04-08T11:22:58.885Z,64.88
2023-04-08T11:25:25.531Z,63.69
2023-04-08T11:27:52.099Z,64.13
2023-04-08T11:30:18.703Z,64.98
2023-04-08T11:32:45.229Z,63.74
2023-04-08T11:35:11.905Z,63.81
2023-04-08T11:37:41.993Z,62.34
2023-04-08T11:40:12.554Z,62.28
2023-04-08T11:42:40.000Z,62.59
2023-04-08T11:45:11.781Z,62.23
2023-04-08T11:47:38.365Z,62.93
2023-04-08T11:50:05.541Z,63.99
2023-04-08T11:52:42.935Z,63.30
2023-04-08T11:55:11.730Z,64.51
2023-04-08T11:57:38.953Z,65.05
2023-04-08T12:00:07.285Z,65.44
2023-04-08T12:02:37.356Z,67.85
2023-04-08T12:05:04.019Z,65.98
2023-04-08T12:07:30.517Z,66.06
2023-04-08T12:09:56.993Z,65.49
2023-04-08T12:12:23.606Z,65.58
2023-04-08T12:14:50.145Z,66.74
2023-04-08T12:17:16.766Z,67.88
2023-04-08T12:19:43.264Z,66.61
2023-04-08T12:22:09.673Z,66.33
2023-04-08T12:24:36.069Z,66.14
2023-04-08T12:27:04.683Z,68.71
2023-04-08T12:29:31.626Z,68.36
2023-04-08T12:31:58.386Z,69.30
2023-04-08T12:34:24.986Z,67.81
2023-04-08T12:36:51.543Z,67.98
2023-04-08T12:39:17.926Z,67.31
2023-04-08T12:41:44.370Z,66.56
2023-04-08T12:44:10.879Z,66.08
2023-04-08T12:46:37.384Z,64.26
2023-04-08T12:49:05.402Z,63.28
2023-04-08T12:51:32.732Z,63.91
2023-04-08T12:54:00.581Z,62.29
2023-04-08T12:56:27.214Z,64.23
2023-04-08T12:58:55.362Z,64.54
2023-04-08T13:01:21.964Z,62.09
2023-04-08T13:03:48.705Z,61.74
2023-04-08T13:06:15.990Z,61.59
2023-04-08T13:08:42.827Z,61.63
2023-04-08T13:11:09.324Z,61.76
2023-04-08T13:13:36.565Z,63.12
2023-04-08T13:16:03.153Z,63.53
2023-04-08T13:18:29.617Z,62.93
2023-04-08T13:20:56.126Z,63.18
2023-04-08T13:23:22.716Z,62.29
2023-04-08T13:25:49.412Z,63.29
2023-04-08T13:28:16.060Z,61.47
2023-04-08T13:30:42.555Z,62.16
2023-04-08T13:33:09.007Z,63.10
2023-04-08T13:35:35.537Z,64.43
2023-04-08T13:38:02.020Z,64.19
2023-04-08T13:40:28.801Z,64.34
2023-04-08T13:42:55.778Z,64.19
2023-04-08T13:45:22.393Z,63.79
2023-04-08T13:47:48.842Z,61.90
2023-04-08T13:50:15.741Z,61.73
2023-04-08T13:52:42.347Z,61.97
2023-04-08T13:55:09.053Z,61.09
2023-04-08T13:57:35.669Z,59.23
2023-04-08T14:00:02.221Z,60.58
2023-04-08T14:02:28.832Z,62.97
2023-04-08T14:04:55.381Z,60.34
2023-04-08T14:07:21.832Z,60.08
2023-04-08T14:09:48.256Z,59.05
2023-04-08T14:12:14.718Z,60.03
2023-04-08T14:14:41.185Z,60.14
2023-04-08T14:17:07.722Z,60.18
2023-04-08T14:19:34.316Z,60.97
2023-04-08T14:22:01.131Z,59.04
2023-04-08T14:24:27.537Z,58.24
2023-04-08T14:26:53.993Z,56.95
2023-04-08T14:29:20.826Z,56.20
2023-04-08T14:31:47.254Z,53.00
2023-04-08T14:34:13.678Z,49.97
2023-04-08T14:36:40.148Z,49.61
2023-04-08T14:39:06.596Z,50.26
2023-04-08T14:41:33.026Z,51.26
2023-04-08T14:43:59.436Z,49.82
2023-04-08T14:46:28.708Z,48.76
2023-04-08T14:48:55.762Z,49.20
2023-04-08T14:51:22.255Z,49.39
2023-04-08T14:53:48.734Z,50.79
2023-04-08T14:56:15.374Z,53.69
2023-04-08T14:58:41.859Z,53.79
2023-04-08T15:01:08.356Z,54.39
2023-04-08T15:03:34.975Z,54.43
2023-04-08T15:06:01.755Z,57.06
2023-04-08T15:08:28.660Z,56.25
2023-04-08T15:10:55.197Z,58.34
2023-04-08T15:13:21.671Z,59.17
2023-04-08T15:15:48.263Z,58.01
2023-04-08T15:18:14.865Z,58.63
2023-04-08T15:20:41.838Z,59.83
2023-04-08T15:23:08.586Z,60.70
2023-04-08T15:25:35.079Z,59.65
2023-04-08T15:28:02.586Z,60.05
2023-04-08T15:30:34.968Z,61.44
2023-04-08T15:33:05.295Z,62.15
2023-04-08T15:35:32.755Z,61.35
2023-04-08T15:38:00.355Z,62.69
2023-04-08T15:40:26.862Z,63.45
2023-04-08T15:42:53.306Z,62.11
2023-04-08T15:45:20.007Z,62.46
2023-04-08T15:47:46.494Z,63.86
2023-04-08T15:50:13.114Z,64.05
2023-04-08T15:52:39.520Z,63.04
2023-04-08T15:55:06.846Z,63.39
2023-04-08T15:57:33.578Z,63.57
2023-04-08T16:00:00.144Z,63.43
2023-04-08T16:02:26.819Z,62.55
2023-04-08T16:04:53.336Z,62.97
2023-04-08T16:07:19.832Z,62.86
2023-04-08T16:09:46.286Z,61.93
2023-04-08T16:12:14.651Z,61.83
2023-04-08T16:14:41.098Z,61.63
2023-04-08T16:17:07.560Z,62.04
2023-04-08T16:19:33.983Z,62.72
2023-04-08T16:22:00.410Z,63.48
2023-04-08T16:24:27.284Z,64.27
2023-04-08T16:26:53.722Z,64.46
2023-04-08T16:29:20.256Z,64.06
2023-04-08T16:31:46.666Z,63.90
2023-04-08T16:34:13.110Z,64.07
2023-04-08T16:36:39.724Z,65.25
2023-04-08T16:39:06.179Z,65.81
2023-04-08T16:41:32.576Z,66.87
2023-04-08T16:43:59.017Z,67.35
2023-04-08T16:46:25.486Z,68.37
2023-04-08T16:48:51.884Z,68.29
2023-04-08T16:51:18.730Z,68.87
2023-04-08T16:53:45.222Z,69.33
2023-04-08T16:56:16.141Z,68.87
2023-04-08T16:58:43.546Z,70.85
2023-04-08T17:01:11.099Z,70.56
2023-04-08T17:03:37.783Z,70.77
2023-04-08T17:06:12.107Z,71.95
2023-04-08T17:08:39.134Z,71.48
2023-04-08T17:11:08.080Z,72.28
2023-04-08T17:13:34.608Z,72.50
2023-04-08T17:16:01.170Z,73.02
2023-04-08T17:18:27.680Z,73.65
2023-04-08T17:20:54.125Z,73.97
2023-04-08T17:23:20.571Z,74.00
2023-04-08T17:25:46.988Z,73.29
2023-04-08T17:28:13.703Z,73.93
2023-04-08T17:30:40.195Z,75.29
2023-04-08T17:33:07.244Z,75.13
2023-04-08T17:35:35.140Z,75.65
2023-04-08T17:38:03.087Z,76.05
2023-04-08T17:40:30.438Z,76.41
2023-04-08T17:42:57.314Z,76.64
2023-04-08T17:45:24.165Z,77.64
2023-04-08T17:47:51.696Z,77.43
2023-04-08T17:50:18.251Z,78.08
2023-04-08T17:52:46.205Z,78.31
2023-04-08T17:55:14.197Z,78.43
2023-04-08T17:57:40.896Z,78.94
2023-04-08T18:00:08.336Z,79.25
2023-04-08T18:02:36.855Z,79.68
2023-04-08T18:05:04.240Z,80.19
2023-04-08T18:07:30.707Z,79.71
2023-04-08T18:09:57.157Z,80.75
2023-04-08T18:12:23.596Z,80.82
2023-04-08T18:14:50.052Z,81.23
2023-04-08T18:17:16.463Z,81.63
2023-04-08T18:19:42.861Z,81.65
2023-04-08T18:22:09.329Z,84.79
2023-04-08T18:24:37.143Z,85.99
2023-04-08T18:27:05.107Z,88.35
2023-04-08T18:29:31.988Z,89.37
2023-04-08T18:31:58.402Z,90.60
2023-04-08T18:34:25.280Z,92.42
2023-04-08T18:36:52.011Z,92.34
2023-04-08T18:39:18.821Z,93.35
2023-04-08T18:41:45.262Z,93.59
2023-04-08T18:44:12.045Z,92.80
2023-04-08T18:46:38.794Z,91.94
2023-04-08T18:49:05.527Z,89.90
2023-04-08T18:51:33.312Z,88.72
2023-04-08T18:53:59.782Z,88.18
2023-04-08T18:56:26.562Z,89.51
2023-04-08T18:58:54.639Z,91.60
2023-04-08T19:01:21.518Z,92.87
2023-04-08T19:03:48.196Z,93.77
2023-04-08T19:06:17.271Z,93.35
2023-04-08T19:08:43.728Z,94.94
2023-04-08T19:11:10.296Z,95.28
2023-04-08T19:13:36.927Z,95.17
2023-04-08T19:16:03.556Z,95.62
2023-04-08T19:18:30.182Z,95.82
2023-04-08T19:20:56.678Z,96.72
2023-04-08T19:23:23.187Z,97.16
2023-04-08T19:25:49.644Z,96.04
2023-04-08T19:28:16.207Z,95.40
2023-04-08T19:30:42.622Z,95.36
2023-04-08T19:33:09.138Z,95.51
2023-04-08T19:35:35.715Z,95.47
2023-04-08T19:38:02.925Z,97.10
2023-04-08T19:40:29.435Z,98.59
2023-04-08T19:42:55.964Z,98.04
2023-04-08T19:45:22.384Z,97.46
2023-04-08T19:47:49.132Z,98.57
2023-04-08T19:50:15.657Z,99.37
2023-04-08T19:52:42.232Z,98.78
2023-04-08T19:55:10.258Z,99.56
2023-04-08T19:57:37.125Z,98.22
2023-04-08T20:00:04.489Z,97.06
2023-04-08T20:02:33.152Z,96.63
2023-04-08T20:04:59.750Z,96.55
2023-04-08T20:07:26.280Z,97.95
2023-04-08T20:09:52.790Z,97.75
2023-04-08T20:12:19.450Z,98.01
2023-04-08T20:14:45.932Z,100.00
2023-04-08T20:17:12.627Z,100.00
2023-04-08T20:19:40.261Z,100.00
2023-04-08T20:22:07.057Z,99.21
2023-04-08T20:24:33.474Z,99.32
2023-04-08T20:27:00.181Z,100.00
2023-04-08T20:29:26.748Z,100.00
2023-04-08T20:31:53.368Z,99.92
2023-04-08T20:34:19.902Z,98.97
2023-04-08T20:36:46.511Z,100.00
2023-04-08T20:39:12.984Z,100.00
2023-04-08T20:41:39.615Z,100.00
2023-04-08T20:44:06.945Z,100.00
2023-04-08T20:46:34.877Z,100.00
2023-04-08T20:49:01.932Z,100.00
2023-04-08T20:51:28.402Z,99.55
2023-04-08T20:53:55.824Z,98.46
2023-04-08T20:56:22.717Z,99.33
2023-04-08T20:58:49.262Z,99.79
2023-04-08T21:01:16.373Z,100.00
2023-04-08T21:03:43.335Z,100.00
2023-04-08T21:06:17.496Z,100.00
2023-04-08T21:08:44.122Z,100.00
2023-04-08T21:11:11.046Z,100.00
2023-04-08T21:13:37.609Z,100.00
2023-04-08T21:16:04.755Z,100.00
2023-04-08T21:18:31.578Z,100.00
2023-04-08T21:20:57.990Z,100.00
2023-04-08T21:23:24.918Z,100.00
2023-04-08T21:25:51.458Z,100.00
2023-04-08T21:28:17.910Z,100.00
2023-04-08T21:30:44.376Z,100.00
2023-04-08T21:33:10.831Z,100.00
2023-04-08T21:35:37.400Z,100.00
2023-04-08T21:38:03.869Z,100.00
2023-04-08T21:40:30.618Z,100.00
2023-04-08T21:42:57.063Z,100.00
2023-04-08T21:45:24.720Z,100.00
2023-04-08T21:47:51.295Z,100.00
2023-04-08T21:50:17.879Z,100.00
2023-04-08T21:52:44.440Z,100.00
2023-04-08T21:55:10.898Z,100.00
2023-04-08T21:57:37.787Z,100.00
2023-04-08T22:00:12.873Z,100.00
2023-04-08T22:02:42.501Z,100.00
2023-04-08T22:05:09.265Z,100.00
2023-04-08T22:07:35.605Z,100.00
2023-04-08T22:10:02.176Z,100.00
2023-04-08T22:12:30.398Z,100.00
2023-04-08T22:14:57.044Z,100.00
2023-04-08T22:17:23.481Z,100.00
2023-04-08T22:19:49.902Z,100.00
2023-04-08T22:22:16.243Z,100.00
2023-04-08T22:24:42.575Z,100.00
2023-04-08T22:27:09.045Z,100.00
2023-04-08T22:29:35.753Z,100.00
2023-04-08T22:32:02.083Z,100.00
2023-04-08T22:34:28.410Z,100.00
2023-04-08T22:36:54.763Z,100.00
2023-04-08T22:39:21.164Z,100.00
2023-04-08T22:41:47.706Z,100.00
2023-04-08T22:44:14.083Z,100.00
2023-04-08T22:46:40.614Z,100.00
2023-04-08T22:49:06.981Z,100.00
2023-04-08T22:51:33.327Z,100.00
2023-04-08T22:53:59.666Z,100.00
2023-04-08T22:56:28.034Z,100.00
2023-04-08T22:58:54.686Z,100.00
2023-04-08T23:01:21.982Z,100.00
2023-04-08T23:03:49.594Z,100.00
2023-04-08T23:06:16.621Z,100.00
2023-04-08T23:08:43.155Z,100.00
2023-04-08T23:11:09.690Z,100.00
2023-04-08T23:13:36.234Z,100.00
2023-04-08T23:16:02.855Z,100.00
2023-04-08T23:18:29.392Z,100.00
2023-04-08T23:20:57.322Z,100.00
2023-04-08T23:23:24.789Z,100.00
2023-04-08T23:25:52.569Z,100.00
2023-04-08T23:28:20.291Z,100.00
2023-04-08T23:30:46.798Z,100.00
2023-04-08T23:33:13.242Z,100.00
2023-04-08T23:35:40.256Z,100.00
2023-04-08T23:38:06.846Z,100.00
2023-04-08T23:40:33.285Z,100.00
2023-04-08T23:42:59.692Z,100.00
2023-04-08T23:45:26.102Z,100.00
2023-04-08T23:47:52.517Z,100.00
2023-04-08T23:50:20.233Z,100.00
2023-04-08T23:52:46.673Z,100.00
2023-04-08T23:55:13.187Z,100.00
2023-04-08T23:57:43.211Z,100.00
